Time;durP1;ratioP1;P1;durP2;ratioP2;P2;SDS_P1;SDS_P2;PMS_P1;PMS_P2;Temp;Humidity;BMP_temperature;BMP_pressure;BME280_temperature;BME280_humidity;BME280_pressure;Samples;Min_cycle;Max_cycle;Signal;HPM_P1;HPM_P2
2022/05/12 00:00:50;;;;;;;;;5.00;3.00;;;;;18.78;56.31;101448.47;5074929;27;45315;-69
2022/05/12 00:03:16;;;;;;;;;3.67;3.00;;;;;18.77;56.53;101452.28;5076754;27;46774;-69
2022/05/12 00:05:42;;;;;;;;;5.00;5.00;;;;;18.74;56.94;101456.25;5074111;27;45340;-69
2022/05/12 00:08:07;;;;;;;;;5.67;3.00;;;;;18.77;56.72;101450.38;5093227;27;45741;-68
2022/05/12 00:10:33;;;;;;;;;4.67;3.33;;;;;18.69;57.19;101455.09;5071007;27;45374;-69
2022/05/12 00:12:59;;;;;;;;;6.00;4.67;;;;;18.64;57.00;101433.63;5089755;27;46415;-69
2022/05/12 00:15:27;;;;;;;;;4.33;4.33;;;;;18.63;57.07;101443.75;5087175;27;45445;-69
2022/05/12 00:17:53;;;;;;;;;5.67;5.67;;;;;18.67;56.58;101452.53;5073909;27;45351;-69
2022/05/12 00:20:21;;;;;;;;;4.33;4.33;;;;;18.71;56.51;101455.75;5087407;27;45607;-69
2022/05/12 00:22:47;;;;;;;;;4.67;4.00;;;;;18.65;57.33;101468.34;5083685;27;45668;-69
2022/05/12 00:25:19;;;;;;;;;6.33;4.67;;;;;18.66;56.94;101461.81;5072757;27;45344;-69
2022/05/12 00:27:44;;;;;;;;;6.33;4.33;;;;;18.69;56.70;101466.09;5085354;27;45226;-69
2022/05/12 00:30:11;;;;;;;;;4.00;3.00;;;;;18.67;56.67;101467.16;5081220;27;45441;-69
2022/05/12 00:32:38;;;;;;;;;4.67;3.33;;;;;18.67;56.92;101472.66;5069111;28;47817;-69
2022/05/12 00:35:06;;;;;;;;;4.33;3.33;;;;;18.60;57.46;101473.56;5105684;27;45425;-68
2022/05/12 00:37:32;;;;;;;;;7.00;4.00;;;;;18.57;57.53;101472.03;5082753;27;45468;-69
2022/05/12 00:39:57;;;;;;;;;7.00;5.00;;;;;18.52;57.39;101477.19;5091053;27;45572;-69
2022/05/12 00:42:23;;;;;;;;;4.67;2.00;;;;;18.53;56.83;101480.81;5080683;27;45411;-69
2022/05/12 00:44:48;;;;;;;;;4.67;4.00;;;;;18.50;57.29;101483.91;5089430;27;45413;-69
2022/05/12 00:47:13;;;;;;;;;6.00;4.00;;;;;18.55;56.76;101482.34;5078468;27;45661;-68
2022/05/12 00:49:41;;;;;;;;;3.67;3.67;;;;;18.58;56.53;101484.75;5087558;27;45532;-69
2022/05/12 00:52:24;;;;;;;;;7.00;4.00;;;;;18.56;56.33;101492.31;5076143;27;45334;-69
2022/05/12 00:54:55;;;;;;;;;5.67;5.00;;;;;18.40;57.16;101495.16;5080366;27;45344;-69
2022/05/12 00:57:30;;;;;;;;;8.33;5.67;;;;;18.47;56.95;101509.06;5078475;27;45371;-69
2022/05/12 00:59:58;;;;;;;;;7.33;6.00;;;;;18.45;56.64;101503.72;5079566;27;45567;-69
2022/05/12 01:02:26;;;;;;;;;7.33;7.33;;;;;18.41;56.26;101502.34;5087554;27;46550;-69
2022/05/12 01:04:54;;;;;;;;;7.33;5.33;;;;;18.39;56.66;101509.97;5082876;28;45341;-69
2022/05/12 01:07:20;;;;;;;;;4.00;4.00;;;;;18.35;56.93;101514.09;5078855;27;45484;-69
2022/05/12 01:09:45;;;;;;;;;6.00;6.00;;;;;18.23;57.24;101519.16;5083531;27;45296;-69
2022/05/12 01:12:11;;;;;;;;;7.67;5.00;;;;;18.12;58.02;101514.03;5074378;27;46175;-69
2022/05/12 01:14:37;;;;;;;;;6.00;6.00;;;;;18.07;57.75;101516.47;5084474;27;45395;-69
2022/05/12 01:17:03;;;;;;;;;6.00;6.00;;;;;17.97;57.40;101524.06;5066081;28;45463;-69
2022/05/12 01:19:33;;;;;;;;;8.00;5.00;;;;;17.93;57.85;101524.63;5072887;27;45581;-68
2022/05/12 01:21:59;;;;;;;;;6.33;6.00;;;;;17.78;58.09;101522.59;5075403;27;45502;-69
2022/05/12 01:24:31;;;;;;;;;11.00;7.00;;;;;17.71;58.14;101526.22;5094298;27;45436;-69
2022/05/12 01:26:56;;;;;;;;;9.67;7.67;;;;;17.72;58.55;101527.94;5077050;27;45245;-69
2022/05/12 01:29:22;;;;;;;;;6.67;6.67;;;;;17.73;57.83;101518.69;5095185;27;45350;-68
2022/05/12 01:31:47;;;;;;;;;6.00;6.00;;;;;17.64;58.31;101523.31;5076874;27;46680;-68
2022/05/12 01:34:13;;;;;;;;;9.33;6.33;;;;;17.62;59.18;101530.88;5074748;28;45367;-69
2022/05/12 01:36:40;;;;;;;;;8.00;5.67;;;;;17.52;59.32;101536.56;5072352;27;45290;-68
2022/05/12 01:39:09;;;;;;;;;7.67;7.67;;;;;17.58;58.68;101529.50;5092871;27;45606;-69
2022/05/12 01:41:35;;;;;;;;;9.33;5.67;;;;;17.49;59.13;101533.28;5074643;27;45219;-69
2022/05/12 01:44:02;;;;;;;;;7.00;6.00;;;;;17.52;59.30;101539.31;5106540;27;45502;-69
2022/05/12 01:46:27;;;;;;;;;8.00;7.67;;;;;17.46;59.18;101539.13;5072689;27;45301;-69
2022/05/12 01:48:53;;;;;;;;;10.00;7.67;;;;;17.51;58.88;101531.22;5089001;27;45463;-69
2022/05/12 01:51:18;;;;;;;;;7.00;7.00;;;;;17.59;58.77;101539.47;5069237;27;47356;-69
2022/05/12 01:53:44;;;;;;;;;5.33;4.00;;;;;17.53;58.69;101542.91;5100756;27;45442;-69
2022/05/12 01:56:10;;;;;;;;;7.00;5.00;;;;;17.50;58.71;101549.59;5069215;27;45368;-69
2022/05/12 01:58:36;;;;;;;;;6.67;5.33;;;;;17.51;58.54;101558.72;5083159;27;45400;-69
2022/05/12 02:01:02;;;;;;;;;5.00;5.00;;;;;17.55;58.61;101560.06;5068640;27;46326;-69
2022/05/12 02:03:28;;;;;;;;;6.00;6.00;;;;;17.62;57.95;101560.25;5095249;27;45376;-68
2022/05/12 02:05:53;;;;;;;;;5.67;4.33;;;;;17.65;58.06;101555.28;5082443;27;45559;-69
2022/05/12 02:08:19;;;;;;;;;5.67;4.67;;;;;17.57;58.42;101569.00;5093267;27;45373;-68
2022/05/12 02:10:49;;;;;;;;;3.33;3.33;;;;;17.59;58.43;101575.19;5066505;28;46460;-69
2022/05/12 02:13:18;;;;;;;;;6.00;5.33;;;;;17.58;57.70;101567.97;5092028;27;45346;-69
2022/05/12 02:15:44;;;;;;;;;7.00;5.00;;;;;17.53;58.02;101581.38;5065679;27;45192;-69
2022/05/12 02:18:10;;;;;;;;;5.33;5.00;;;;;17.61;57.40;101586.88;5089152;27;45446;-69
2022/05/12 02:20:36;;;;;;;;;5.33;4.00;;;;;17.58;56.14;101583.59;5064215;27;48200;-69
2022/05/12 02:23:01;;;;;;;;;5.67;3.00;;;;;17.44;56.08;101579.66;5069141;28;45315;-69
2022/05/12 02:25:27;;;;;;;;;3.00;3.00;;;;;17.43;55.80;101578.81;5091512;27;45643;-69
2022/05/12 02:27:55;;;;;;;;;3.67;3.67;;;;;17.58;55.37;101586.34;5089848;27;45402;-69
2022/05/12 02:30:27;;;;;;;;;4.00;3.00;;;;;17.53;54.89;101589.63;5092979;27;46343;-69
2022/05/12 02:32:52;;;;;;;;;5.00;4.00;;;;;17.44;54.49;101602.50;5081349;27;45220;-69
2022/05/12 02:35:18;;;;;;;;;3.00;3.00;;;;;17.35;54.67;101605.41;5089947;27;45343;-69
2022/05/12 02:37:44;;;;;;;;;7.00;5.00;;;;;17.26;54.46;101603.69;5068278;28;45539;-69
2022/05/12 02:40:13;;;;;;;;;4.00;3.00;;;;;17.19;54.57;101598.03;5083457;27;45367;-68
2022/05/12 02:42:38;;;;;;;;;3.00;3.00;;;;;17.11;54.94;101606.25;5082939;27;45271;-69
2022/05/12 02:45:05;;;;;;;;;4.67;3.00;;;;;17.10;55.17;101599.91;5081654;27;45261;-69
2022/05/12 02:47:31;;;;;;;;;1.67;1.67;;;;;17.13;54.74;101594.09;5068067;28;45540;-69
2022/05/12 02:49:56;;;;;;;;;5.00;2.00;;;;;17.21;54.23;101600.59;5079733;27;46440;-69
2022/05/12 02:52:21;;;;;;;;;2.00;2.00;;;;;17.15;54.69;101607.66;5077888;27;45394;-68
2022/05/12 02:54:47;;;;;;;;;6.00;3.00;;;;;17.02;55.00;101608.13;5078262;27;45209;-69
2022/05/12 02:57:12;;;;;;;;;3.00;3.00;;;;;17.11;55.36;101609.84;5074473;27;45237;-69
2022/05/12 02:59:38;;;;;;;;;5.33;3.00;;;;;17.09;54.84;101614.66;5076405;27;46453;-68
2022/05/12 03:02:04;;;;;;;;;2.33;2.00;;;;;17.12;55.15;101614.31;5075550;27;45327;-69
2022/05/12 03:04:29;;;;;;;;;4.33;3.67;;;;;17.00;55.64;101632.16;5087130;27;45480;-69
2022/05/12 03:06:54;;;;;;;;;4.00;4.00;;;;;17.04;55.48;101622.53;5072493;27;45420;-69
2022/05/12 03:09:20;;;;;;;;;2.00;2.00;;;;;17.07;55.30;101622.22;5085516;27;46539;-69
2022/05/12 03:11:45;;;;;;;;;3.67;2.00;;;;;16.95;55.43;101629.03;5071252;27;45309;-68
2022/05/12 03:14:11;;;;;;;;;3.33;1.67;;;;;16.83;56.37;101629.53;5084539;27;45874;-69
2022/05/12 03:16:36;;;;;;;;;6.00;3.00;;;;;16.79;56.17;101629.03;5069960;27;45356;-69
2022/05/12 03:19:03;;;;;;;;;2.00;1.00;;;;;16.71;56.81;101637.25;5081624;27;47313;-68
2022/05/12 03:21:28;;;;;;;;;5.33;4.00;;;;;16.76;56.65;101623.00;5066089;27;45302;-68
2022/05/12 03:23:54;;;;;;;;;5.00;2.00;;;;;16.87;56.33;101642.78;5081997;27;46037;-69
2022/05/12 03:26:19;;;;;;;;;2.00;2.00;;;;;16.89;56.13;101634.34;5074431;27;45312;-69
2022/05/12 03:28:45;;;;;;;;;1.00;1.00;;;;;16.90;56.33;101636.06;5089554;27;45631;-69
2022/05/12 03:31:10;;;;;;;;;2.67;2.00;;;;;16.84;56.73;101631.25;5079872;27;45275;-69
2022/05/12 03:33:36;;;;;;;;;5.00;3.33;;;;;16.87;56.51;101630.94;5093015;27;45225;-69
2022/05/12 03:36:03;;;;;;;;;5.67;4.00;;;;;16.86;56.94;101635.56;5080057;27;45563;-69
2022/05/12 03:38:29;;;;;;;;;7.67;6.33;;;;;16.68;57.41;101637.56;5070340;27;48091;-69
2022/05/12 03:40:55;;;;;;;;;3.00;3.00;;;;;16.67;57.41;101628.47;5079625;27;45321;-67
2022/05/12 03:46:06;;;;;;;;;6.00;4.00;;;;;16.40;58.03;101627.81;5075537;27;45284;-67
2022/05/12 03:48:32;;;;;;;;;4.00;4.00;;;;;16.44;58.08;101626.47;5085210;27;47140;-69
2022/05/12 03:50:57;;;;;;;;;4.67;3.00;;;;;16.40;57.80;101628.69;5074089;27;45378;-67
2022/05/12 03:53:24;;;;;;;;;5.00;2.00;;;;;16.40;58.06;101633.31;5079630;27;45783;-68
2022/05/12 03:55:50;;;;;;;;;2.33;2.33;;;;;16.31;58.34;101626.91;5074223;27;45302;-68
2022/05/12 03:58:15;;;;;;;;;5.67;4.00;;;;;16.26;58.50;101638.38;5064014;28;47396;-68
2022/05/12 04:00:40;;;;;;;;;3.00;3.00;;;;;16.13;59.20;101635.25;5075554;28;45227;-69
2022/05/12 04:03:06;;;;;;;;;4.00;4.00;;;;;16.09;59.42;101631.09;5092677;27;45655;-68
2022/05/12 04:05:31;;;;;;;;;7.00;5.67;;;;;16.12;59.22;101646.38;5085391;27;45691;-68
2022/05/12 04:07:58;;;;;;;;;4.00;3.67;;;;;16.07;59.59;101652.31;5084318;27;46374;-68
2022/05/12 04:10:25;;;;;;;;;7.00;3.33;;;;;15.94;59.73;101641.78;5070243;27;45594;-68
2022/05/12 04:12:51;;;;;;;;;6.00;3.00;;;;;15.86;60.17;101657.31;5068635;28;45404;-68
2022/05/12 04:15:16;;;;;;;;;5.00;3.00;;;;;15.84;60.56;101652.03;5069543;27;45330;-69
2022/05/12 04:17:43;;;;;;;;;4.33;4.00;;;;;15.73;60.42;101656.88;5076957;27;45619;-68
2022/05/12 04:20:12;;;;;;;;;5.00;3.00;;;;;15.66;61.30;101666.75;5072070;27;45494;-69
2022/05/12 04:22:40;;;;;;;;;7.33;4.00;;;;;15.57;61.47;101663.94;5088626;27;45319;-68
2022/05/12 04:25:06;;;;;;;;;3.00;3.00;;;;;15.62;60.83;101659.91;5067615;27;45330;-68
2022/05/12 04:27:34;;;;;;;;;3.67;3.00;;;;;15.56;61.13;101667.69;5077106;27;45608;-68
2022/05/12 04:30:00;;;;;;;;;10.00;8.67;;;;;15.54;61.41;101661.53;5091366;27;46684;-69
2022/05/12 04:32:25;;;;;;;;;5.33;3.00;;;;;15.66;60.87;101672.25;5075669;27;45468;-69
2022/05/12 04:37:35;;;;;;;;;4.67;4.33;;;;;15.57;61.39;101674.91;5078734;27;45495;-69
2022/05/12 04:40:05;;;;;;;;;4.00;4.00;;;;;15.66;61.30;101674.97;5081546;27;45434;-69
2022/05/12 04:42:30;;;;;;;;;5.67;3.00;;;;;15.64;60.93;101680.59;5075621;27;45429;-69
2022/05/12 04:44:56;;;;;;;;;5.67;4.00;;;;;15.63;61.00;101684.41;5103871;27;45329;-68
2022/05/12 04:47:21;;;;;;;;;6.67;5.00;;;;;15.61;61.32;101670.00;5078582;27;45433;-69
2022/05/12 04:49:46;;;;;;;;;4.67;3.67;;;;;15.68;61.58;101690.25;5087751;27;45507;-69
2022/05/12 04:52:12;;;;;;;;;12.67;8.00;;;;;15.66;61.20;101694.16;5076578;27;45827;-68
2022/05/12 04:54:38;;;;;;;;;6.33;5.00;;;;;15.67;60.98;101691.25;5079020;27;45427;-68
2022/05/12 04:57:05;;;;;;;;;6.67;4.67;;;;;15.79;60.37;101691.84;5070376;27;47307;-69
2022/05/12 04:59:33;;;;;;;;;4.00;3.00;;;;;15.54;61.08;101694.41;5092999;27;45492;-69
2022/05/12 05:01:58;;;;;;;;;4.00;4.00;;;;;15.62;61.46;101690.03;5065471;28;45550;-69
2022/05/12 05:04:23;;;;;;;;;4.00;4.00;;;;;15.75;60.73;101687.72;5087833;27;45586;-71
2022/05/12 05:06:49;;;;;;;;;5.33;3.33;;;;;15.74;60.51;101683.25;5067755;27;47251;-69
2022/05/12 05:09:14;;;;;;;;;5.33;3.67;;;;;15.76;60.65;101689.47;5104510;27;45435;-70
2022/05/12 05:11:39;;;;;;;;;7.00;4.33;;;;;15.84;60.89;101692.25;5071299;27;45279;-69
2022/05/12 05:14:05;;;;;;;;;5.00;3.33;;;;;15.90;60.65;101694.34;5086857;27;45245;-69
2022/05/12 05:16:30;;;;;;;;;11.00;8.00;;;;;16.57;58.48;101692.72;5068402;27;45777;-69
2022/05/12 05:18:56;;;;;;;;;7.00;5.00;;;;;16.99;56.49;101696.34;5102107;27;45271;-68
2022/05/12 05:21:21;;;;;;;;;5.33;5.00;;;;;16.70;57.67;101701.38;5065056;27;45388;-69
2022/05/12 05:23:47;;;;;;;;;8.33;3.33;;;;;16.47;58.27;101705.69;5093798;27;45348;-68
2022/05/12 05:26:12;;;;;;;;;5.00;5.00;;;;;16.38;58.51;101713.00;5081513;27;46150;-70
2022/05/12 05:28:39;;;;;;;;;2.67;0.00;;;;;16.21;58.91;101723.03;5089484;27;45507;-69
2022/05/12 05:31:05;;;;;;;;;5.00;4.00;;;;;15.94;59.36;101724.00;5080032;27;45423;-69
2022/05/12 05:33:31;;;;;;;;;6.00;5.00;;;;;15.95;59.94;101705.69;5089036;27;45696;-69
2022/05/12 05:35:57;;;;;;;;;8.33;6.00;;;;;16.28;59.27;101713.13;5079751;27;45479;-70
2022/05/12 05:38:23;;;;;;;;;4.33;3.33;;;;;16.43;58.85;101715.28;5085454;27;45459;-70
2022/05/12 05:40:49;;;;;;;;;2.33;2.33;;;;;16.50;58.32;101722.69;5081439;27;45453;-71
2022/05/12 05:43:14;;;;;;;;;6.33;3.67;;;;;16.56;58.33;101726.66;5081671;27;45248;-70
2022/05/12 05:45:40;;;;;;;;;5.00;5.00;;;;;16.59;58.03;101731.78;5070043;28;46473;-70
2022/05/12 05:48:06;;;;;;;;;9.00;6.33;;;;;16.58;58.43;101735.59;5078350;27;45411;-70
2022/05/12 05:53:26;;;;;;;;;5.67;5.67;;;;;16.84;57.51;101744.66;5077621;27;45384;-69
2022/05/12 05:55:58;;;;;;;;;5.33;5.33;;;;;16.98;56.96;101752.25;5086939;27;48204;-68
2022/05/12 05:58:24;;;;;;;;;7.00;5.00;;;;;16.68;57.38;101758.28;5065746;27;45378;-70
2022/05/12 06:00:49;;;;;;;;;7.00;5.00;;;;;16.68;57.51;101748.19;5071572;27;45366;-68
2022/05/12 06:03:15;;;;;;;;;7.00;4.00;;;;;16.83;57.32;101764.88;5073027;28;45339;-68
2022/05/12 06:05:41;;;;;;;;;11.00;11.00;;;;;16.75;57.56;101775.81;5070933;27;46643;-69
2022/05/12 06:08:10;;;;;;;;;6.67;5.00;;;;;16.90;56.99;101776.94;5086288;27;45578;-69
2022/05/12 06:10:36;;;;;;;;;6.00;6.00;;;;;16.81;57.18;101786.13;5085393;27;45535;-68
2022/05/12 06:13:03;;;;;;;;;5.33;5.00;;;;;16.80;57.22;101784.44;5070757;28;45353;-68
2022/05/12 06:15:29;;;;;;;;;6.00;4.67;;;;;16.84;56.98;101787.72;5068161;27;45683;-70
2022/05/12 06:17:55;;;;;;;;;8.00;4.33;;;;;16.78;57.30;101797.47;5081146;27;45418;-69
2022/05/12 06:20:22;;;;;;;;;6.00;3.67;;;;;16.95;56.67;101796.50;5069483;27;45330;-69
2022/05/12 06:22:47;;;;;;;;;5.00;5.00;;;;;17.17;56.01;101786.81;5081428;27;45487;-70
2022/05/12 06:25:15;;;;;;;;;6.00;4.00;;;;;17.42;54.89;101787.75;5092503;27;46744;-70
2022/05/12 06:27:41;;;;;;;;;6.33;4.33;;;;;17.63;54.55;101790.06;5064844;28;45271;-69
2022/05/12 06:30:11;;;;;;;;;4.67;3.00;;;;;17.33;54.37;101795.13;5086946;27;45384;-70
2022/05/12 06:32:38;;;;;;;;;7.00;4.00;;;;;17.35;54.38;101794.94;5079470;27;45494;-69
2022/05/12 06:35:03;;;;;;;;;7.67;5.00;;;;;17.52;53.67;101791.22;5068768;27;45470;-70
2022/05/12 06:37:29;;;;;;;;;5.67;5.00;;;;;17.49;53.70;101792.41;5077204;27;45395;-69
2022/05/12 06:39:54;;;;;;;;;9.00;4.67;;;;;17.51;53.85;101800.50;5073888;28;45236;-70
2022/05/12 06:42:20;;;;;;;;;8.67;6.00;;;;;17.75;53.37;101789.56;5063989;28;45248;-70
2022/05/12 06:44:48;;;;;;;;;4.00;4.00;;;;;17.78;53.28;101818.63;5082517;27;45285;-69
2022/05/12 06:47:15;;;;;;;;;6.33;3.00;;;;;17.79;52.46;101812.09;5076065;27;45384;-70
2022/05/12 06:49:41;;;;;;;;;3.00;3.00;;;;;17.68;52.73;101813.25;5092788;27;45353;-70
2022/05/12 06:52:07;;;;;;;;;5.00;4.00;;;;;17.89;51.75;101805.41;5085888;27;45573;-71
2022/05/12 06:54:34;;;;;;;;;7.00;4.33;;;;;18.18;51.12;101809.53;5079237;27;45352;-70
2022/05/12 06:57:00;;;;;;;;;5.33;5.33;;;;;18.19;51.02;101800.28;5068139;27;45317;-69
2022/05/12 06:59:26;;;;;;;;;5.67;5.33;;;;;18.23;51.86;101801.63;5077749;27;45222;-69
2022/05/12 07:01:51;;;;;;;;;6.33;4.00;;;;;18.44;50.36;101804.69;5069623;27;45338;-69
2022/05/12 07:04:17;;;;;;;;;8.00;5.00;;;;;18.35;50.16;101794.72;5086173;27;46224;-70
2022/05/12 07:06:42;;;;;;;;;9.00;6.33;;;;;18.47;50.23;101807.13;5068784;27;45216;-69
2022/05/12 07:09:07;;;;;;;;;4.00;4.00;;;;;18.51;50.84;101811.22;5085392;27;45270;-69
2022/05/12 07:11:33;;;;;;;;;5.00;4.33;;;;;18.83;50.56;101807.59;5066641;27;45887;-69
2022/05/12 07:13:58;;;;;;;;;5.33;4.00;;;;;18.95;49.48;101808.06;5084951;27;45696;-68
2022/05/12 07:16:23;;;;;;;;;6.33;5.33;;;;;19.05;48.83;101814.22;5064324;27;45431;-69
2022/05/12 07:18:49;;;;;;;;;7.33;5.67;;;;;18.78;49.55;101814.63;5085748;27;45376;-70
2022/05/12 07:26:45;;;;;;;;;5.67;4.00;;;;;19.27;47.66;101818.09;5073124;27;45508;-69
2022/05/12 07:29:17;;;;;;;;;3.00;2.00;;;;;19.16;46.08;101800.03;5091327;27;45313;-70
2022/05/12 07:31:43;;;;;;;;;6.00;5.00;;;;;19.04;47.50;101812.50;5074658;27;45475;-70
2022/05/12 07:34:09;;;;;;;;;6.00;4.33;;;;;19.03;47.50;101816.28;5087356;27;45513;-69
2022/05/12 07:36:41;;;;;;;;;5.67;5.33;;;;;19.23;46.93;101806.56;5073753;27;45412;-69
2022/05/12 07:39:07;;;;;;;;;7.00;4.00;;;;;19.03;45.59;101800.63;5105860;27;45348;-69
2022/05/12 07:41:34;;;;;;;;;4.00;4.00;;;;;19.20;46.05;101811.59;5086612;27;45362;-70
2022/05/12 07:44:00;;;;;;;;;6.33;4.00;;;;;19.16;46.13;101810.19;5087086;27;45323;-69
2022/05/12 07:46:30;;;;;;;;;7.33;4.00;;;;;19.23;46.55;101817.56;5068893;27;46167;-70
2022/05/12 07:48:57;;;;;;;;;2.67;2.00;;;;;19.44;45.78;101812.28;5098585;27;45508;-70
2022/05/12 07:51:23;;;;;;;;;5.67;4.00;;;;;18.90;45.46;101813.25;5067178;27;45629;-69
2022/05/12 07:53:49;;;;;;;;;5.00;5.00;;;;;18.91;46.02;101809.44;5079736;27;45447;-70
2022/05/12 07:56:17;;;;;;;;;5.00;4.00;;;;;19.28;45.23;101817.91;5065525;27;45464;-69
2022/05/12 07:58:43;;;;;;;;;6.67;5.00;;;;;19.42;44.86;101813.53;5080189;27;45481;-70
2022/05/12 08:01:09;;;;;;;;;7.00;5.00;;;;;19.63;45.02;101811.03;5080972;27;45236;-70
2022/05/12 08:03:34;;;;;;;;;5.67;3.00;;;;;19.92;44.36;101807.56;5090994;27;45364;-70
2022/05/12 08:06:00;;;;;;;;;6.00;5.00;;;;;20.21;43.77;101815.94;5063140;27;45309;-70
2022/05/12 08:08:26;;;;;;;;;4.67;2.00;;;;;19.88;42.89;101819.97;5088516;27;45417;-71
2022/05/12 08:10:51;;;;;;;;;5.33;3.67;;;;;19.85;43.31;101814.00;5063002;27;45326;-70
2022/05/12 08:13:17;;;;;;;;;4.00;4.00;;;;;19.73;43.54;101819.06;5085664;27;45411;-70
2022/05/12 08:15:47;;;;;;;;;3.00;2.00;;;;;19.84;43.67;101815.88;5066823;27;45362;-70
2022/05/12 08:18:16;;;;;;;;;8.00;5.33;;;;;20.04;42.74;101819.00;5088290;27;45343;-70
2022/05/12 08:20:44;;;;;;;;;4.33;4.33;;;;;20.21;43.07;101826.97;5092542;27;45215;-71
2022/05/12 08:23:10;;;;;;;;;5.33;5.00;;;;;20.52;42.02;101820.53;5084105;27;45553;-70
2022/05/12 08:25:36;;;;;;;;;9.67;5.67;;;;;20.27;42.50;101828.13;5075395;28;45411;-69
2022/05/12 08:28:01;;;;;;;;;7.00;4.33;;;;;20.24;43.14;101809.19;5088620;27;45469;-70
2022/05/12 08:30:29;;;;;;;;;4.00;3.00;;;;;20.50;42.21;101823.47;5088413;27;45460;-70
2022/05/12 08:32:55;;;;;;;;;4.67;4.00;;;;;20.98;42.48;101819.31;5084239;27;45373;-71
2022/05/12 08:35:20;;;;;;;;;5.33;3.33;;;;;21.31;41.82;101810.66;5084133;27;45588;-70
2022/05/12 08:37:45;;;;;;;;;5.67;4.33;;;;;21.59;40.94;101822.72;5084090;27;45353;-70
2022/05/12 08:40:18;;;;;;;;;2.67;2.67;;;;;21.80;39.83;101823.78;5081682;27;45362;-70
2022/05/12 08:42:46;;;;;;;;;4.33;2.67;;;;;21.46;39.84;101819.78;5067932;28;48727;-71
2022/05/12 08:45:14;;;;;;;;;3.00;2.00;;;;;20.93;38.95;101829.22;5080253;27;45305;-70
2022/05/12 08:47:44;;;;;;;;;2.33;2.33;;;;;20.34;39.91;101822.75;5070135;27;45513;-70
2022/05/12 08:50:15;;;;;;;;;1.33;1.33;;;;;20.46;40.34;101821.25;5078939;27;45454;-70
2022/05/12 08:52:44;;;;;;;;;3.00;3.00;;;;;21.11;40.48;101815.91;5077352;27;45368;-69
2022/05/12 08:55:10;;;;;;;;;4.00;2.00;;;;;21.13;39.30;101823.97;5084655;27;45333;-69
2022/05/12 08:57:40;;;;;;;;;3.00;2.00;;;;;20.72;40.08;101821.69;5108188;27;45355;-70
2022/05/12 09:00:10;;;;;;;;;4.00;2.33;;;;;21.27;40.09;101814.84;5096569;27;45475;-70
2022/05/12 09:02:45;;;;;;;;;1.00;1.00;;;;;21.81;39.53;101808.91;5067394;28;47074;-70
2022/05/12 09:05:16;;;;;;;;;6.00;5.00;;;;;21.75;38.14;101818.88;5076326;27;45252;-70
2022/05/12 09:08:03;;;;;;;;;4.33;2.00;;;;;21.25;38.60;101812.31;5079177;27;45372;-70
2022/05/12 09:10:50;;;;;;;;;2.67;2.33;;;;;21.50;37.94;101809.19;5070742;27;45563;-70
2022/05/12 09:13:26;;;;;;;;;3.33;3.33;;;;;21.57;38.01;101816.50;5089823;27;45744;-69
2022/05/12 09:16:17;;;;;;;;;2.00;2.00;;;;;22.37;38.19;101805.22;5064439;28;45170;-69
2022/05/12 09:18:42;;;;;;;;;3.67;3.00;;;;;22.65;35.85;101796.91;5091426;27;45372;-70
2022/05/12 09:21:13;;;;;;;;;3.00;3.00;;;;;22.56;36.45;101816.69;5085667;27;45370;-70
2022/05/12 09:23:38;;;;;;;;;5.00;2.33;;;;;22.54;36.50;101811.34;5088168;27;45539;-70
2022/05/12 09:26:28;;;;;;;;;4.00;2.00;;;;;22.47;36.69;101811.28;5083380;27;45338;-69
2022/05/12 09:29:06;;;;;;;;;3.33;3.33;;;;;22.99;35.95;101812.75;5090974;27;45413;-70
2022/05/12 09:31:31;;;;;;;;;8.67;6.33;;;;;22.56;35.74;101816.69;5092522;27;45296;-70
2022/05/12 09:34:19;;;;;;;;;10.33;10.33;;;;;22.30;36.25;101807.09;5089356;27;45312;-70
2022/05/12 09:36:44;;;;;;;;;4.00;2.00;;;;;21.84;37.28;101812.16;5086180;27;45410;-70
2022/05/12 09:39:10;;;;;;;;;4.67;1.67;;;;;22.02;37.29;101808.94;5090279;27;45261;-71
2022/05/12 09:41:41;;;;;;;;;5.33;1.33;;;;;22.09;36.60;101807.09;5071420;27;45451;-70
2022/05/12 09:44:21;;;;;;;;;4.00;3.00;;;;;22.20;36.66;101811.25;5088097;27;45378;-71
2022/05/12 09:47:05;;;;;;;;;2.67;2.67;;;;;22.33;36.47;101801.16;5083685;27;45545;-71
2022/05/12 09:49:38;;;;;;;;;1.33;1.33;;;;;22.95;36.71;101797.56;5071017;28;45361;-71
2022/05/12 09:52:22;;;;;;;;;18.00;14.75;;;;;22.68;36.19;101801.22;5073432;27;45330;-71
2022/05/12 09:54:48;;;;;;;;;6.00;3.00;;;;;22.48;36.64;101793.63;5074809;27;46249;-71
2022/05/12 09:57:26;;;;;;;;;5.00;3.00;;;;;22.75;36.21;101791.91;5065053;28;45430;-71
2022/05/12 09:59:57;;;;;;;;;3.00;2.00;;;;;22.86;36.54;101807.13;5072849;27;45440;-71
2022/05/12 10:07:53;;;;;;;;;2.00;2.00;;;;;23.35;35.87;101795.88;5076727;27;45171;-70
2022/05/12 10:08:22;;;;;;;;;2.67;2.00;;;;;23.50;34.73;101788.28;5087711;27;45378;-71
2022/05/12 10:10:54;;;;;;;;;4.00;4.00;;;;;23.93;34.27;101786.03;5062745;28;45648;-70
2022/05/12 10:13:42;;;;;;;;;6.33;5.00;;;;;23.89;34.86;101786.69;5077358;27;45552;-71
2022/05/12 10:16:10;;;;;;;;;4.33;4.33;;;;;23.68;33.88;101787.69;5073094;28;45455;-71
2022/05/12 10:18:47;;;;;;;;;3.00;2.00;;;;;23.66;34.24;101781.50;5092030;27;45510;-69
2022/05/12 10:21:20;;;;;;;;;2.00;2.00;;;;;24.20;33.66;101780.53;5084505;27;45476;-68
2022/05/12 10:24:22;;;;;;;;;3.33;2.67;;;;;24.35;32.93;101775.63;5090931;27;45344;-67
2022/05/12 10:27:05;;;;;;;;;3.33;1.33;;;;;24.06;32.79;101761.06;5076062;27;46361;-68
2022/05/12 10:29:45;;;;;;;;;5.33;2.00;;;;;24.16;33.72;101770.91;5097239;27;45391;-71
2022/05/12 10:32:23;;;;;;;;;2.67;2.67;;;;;23.65;33.94;101774.25;5103475;27;45309;-69
2022/05/12 10:35:13;;;;;;;;;2.67;2.00;;;;;23.50;34.48;101762.47;5084037;27;45328;-69
2022/05/12 10:37:53;;;;;;;;;7.00;4.00;;;;;23.20;35.62;101770.22;5078730;27;45433;-70
2022/05/12 10:40:37;;;;;;;;;4.00;4.00;;;;;23.02;35.69;101772.66;5076200;27;45379;-70
2022/05/12 10:43:11;;;;;;;;;2.00;2.00;;;;;23.18;35.07;101795.34;5080200;27;45550;-70
2022/05/12 10:45:49;;;;;;;;;3.00;2.00;;;;;24.13;33.42;101779.66;5078486;27;45399;-71
2022/05/12 10:48:53;;;;;;;;;1.00;1.00;;;;;24.65;32.67;101773.25;5076764;27;46702;-71
2022/05/12 10:51:51;;;;;;;;;2.33;1.33;;;;;25.61;31.85;101770.63;5062557;27;45436;-71
2022/05/12 10:54:55;;;;;;;;;3.33;2.00;;;;;25.73;31.02;101763.25;5093832;27;45279;-71
2022/05/12 10:57:44;;;;;;;;;6.67;4.00;;;;;25.80;30.78;101752.91;5035216;28;45410;-70
2022/05/12 11:00:34;;;;;;;;;2.00;2.00;;;;;25.15;31.36;101754.94;5016818;28;45608;-71
2022/05/12 11:03:24;;;;;;;;;2.33;2.33;;;;;24.88;31.85;101761.66;5073542;27;45515;-70
2022/05/12 11:06:00;;;;;;;;;5.00;3.00;;;;;24.84;31.92;101756.53;5062613;28;45330;-69
2022/05/12 11:08:34;;;;;;;;;1.67;1.00;;;;;24.88;32.61;101759.72;5076344;27;45568;-71
2022/05/12 11:11:22;;;;;;;;;1.00;1.00;;;;;25.76;31.53;101746.09;5077984;27;46614;-69
2022/05/12 11:14:05;;;;;;;;;3.67;2.33;;;;;26.65;30.06;101756.97;5087440;27;45285;-70
2022/05/12 11:16:42;;;;;;;;;3.33;2.33;;;;;25.84;30.19;101766.19;5063197;27;45345;-71
2022/05/12 11:19:18;;;;;;;;;4.67;2.33;;;;;26.25;30.36;101760.09;5080501;27;45270;-69
2022/05/12 11:22:05;;;;;;;;;3.00;3.00;;;;;27.12;29.56;101758.16;5063789;27;47413;-72
2022/05/12 11:24:55;;;;;;;;;2.67;1.33;;;;;26.80;29.82;101756.59;5099387;27;45419;-69
2022/05/12 11:27:42;;;;;;;;;3.33;3.33;;;;;27.26;29.11;101754.13;5087425;27;45332;-69
2022/05/12 11:30:19;;;;;;;;;3.00;1.67;;;;;26.08;30.07;101766.44;5091666;27;45433;-70
2022/05/12 11:32:55;;;;;;;;;4.33;4.00;;;;;25.51;31.48;101766.34;5081118;27;46798;-67
2022/05/12 11:35:30;;;;;;;;;4.33;3.00;;;;;25.18;31.90;101760.09;5084484;27;45326;-68
2022/05/12 11:38:04;;;;;;;;;17.50;16.00;;;;;25.68;31.82;101754.72;5068153;27;45389;-69
2022/05/12 11:40:44;;;;;;;;;2.67;2.67;;;;;25.60;31.27;101769.75;5071010;28;45349;-70
2022/05/12 11:46:25;;;;;;;;;4.00;4.00;;;;;25.05;32.54;101749.88;5066654;28;45417;-70
2022/05/12 11:48:56;;;;;;;;;3.33;3.33;;;;;25.30;32.28;101763.03;5084899;27;45433;-70
2022/05/12 11:51:27;;;;;;;;;2.67;2.00;;;;;25.12;32.29;101763.75;5071180;27;45206;-70
2022/05/12 11:54:00;;;;;;;;;3.00;2.67;;;;;24.39;33.20;101766.66;5083138;27;46283;-70